Time;durP1;ratioP1;P1;durP2;ratioP2;P2;SDS_P1;SDS_P2;PMS_P1;PMS_P2;Temp;Humidity;BMP_temperature;BMP_pressure;BME280_temperature;BME280_humidity;BME280_pressure;Samples;Min_cycle;Max_cycle;Signal;HPM_P1;HPM_P2
2023/09/26 00:02:12;;;;;;;1999.90;999.90;;;10.80;99.90;;;;;;5089772;28;20422;-73
2023/09/26 00:04:39;;;;;;;1999.90;999.90;;;10.90;99.90;;;;;;5089489;28;20512;-73
2023/09/26 00:07:07;;;;;;;1999.90;999.90;;;10.80;99.90;;;;;;5091364;28;20430;-73
2023/09/26 00:09:35;;;;;;;1999.90;999.90;;;11.00;99.90;;;;;;5090531;28;20455;-73
2023/09/26 00:12:03;;;;;;;1999.90;999.90;;;11.10;99.90;;;;;;5090236;28;21168;-73
2023/09/26 00:14:31;;;;;;;1999.90;999.90;;;11.10;99.90;;;;;;5084303;28;20426;-74
2023/09/26 00:16:58;;;;;;;1999.90;999.90;;;10.80;99.90;;;;;;5087209;28;20431;-73
2023/09/26 00:19:25;;;;;;;1999.90;999.90;;;10.80;99.90;;;;;;5090992;28;20429;-73
2023/09/26 00:21:52;;;;;;;1999.90;999.90;;;10.50;99.90;;;;;;5090460;28;20426;-73
2023/09/26 00:24:19;;;;;;;1999.90;999.90;;;10.60;99.90;;;;;;5089772;28;20451;-73
2023/09/26 00:26:45;;;;;;;1999.90;999.90;;;10.50;99.90;;;;;;5091438;28;20457;-73
2023/09/26 00:29:12;;;;;;;1999.90;999.90;;;10.50;99.90;;;;;;5090895;28;20503;-74
2023/09/26 00:31:40;;;;;;;1999.90;999.90;;;10.40;99.90;;;;;;5090566;28;20499;-74
2023/09/26 00:34:07;;;;;;;1999.90;999.90;;;10.40;99.90;;;;;;5087844;28;20426;-72
2023/09/26 00:36:34;;;;;;;1999.90;999.90;;;10.30;99.90;;;;;;5083552;28;20505;-74
2023/09/26 00:39:01;;;;;;;1999.90;999.90;;;10.30;99.90;;;;;;5088622;28;20430;-74
2023/09/26 00:41:27;;;;;;;1999.90;999.90;;;10.50;99.90;;;;;;5084826;28;20426;-74
2023/09/26 00:43:54;;;;;;;1999.90;999.90;;;10.40;99.90;;;;;;5087587;28;20942;-74
2023/09/26 00:46:21;;;;;;;1999.90;999.90;;;10.90;99.90;;;;;;5085915;28;20427;-74
2023/09/26 00:48:49;;;;;;;1999.90;999.90;;;10.70;99.90;;;;;;5084238;28;20434;-73
2023/09/26 00:51:16;;;;;;;1999.90;999.90;;;10.40;99.90;;;;;;5086558;28;20433;-73
2023/09/26 00:53:43;;;;;;;1999.90;999.90;;;10.40;99.90;;;;;;5085730;28;20950;-74
2023/09/26 00:56:10;;;;;;;1999.90;999.90;;;10.70;99.90;;;;;;5087792;28;20437;-73
2023/09/26 00:58:39;;;;;;;1999.90;999.90;;;10.30;99.90;;;;;;5082419;28;20441;-74
2023/09/26 01:01:06;;;;;;;1999.90;999.90;;;10.10;99.90;;;;;;5088235;28;20426;-73
2023/09/26 01:03:33;;;;;;;1999.90;999.90;;;10.50;99.90;;;;;;5088133;28;20421;-73
2023/09/26 01:06:03;;;;;;;1999.90;999.90;;;10.20;99.90;;;;;;5088116;28;20433;-73
2023/09/26 01:08:30;;;;;;;1999.90;999.90;;;10.10;99.90;;;;;;5083671;28;20421;-74
2023/09/26 01:10:58;;;;;;;1999.90;999.90;;;10.10;99.90;;;;;;5089284;28;20430;-73
2023/09/26 01:13:25;;;;;;;1999.90;999.90;;;10.00;99.90;;;;;;5087823;28;20421;-73
2023/09/26 01:15:52;;;;;;;1999.90;999.90;;;10.00;99.90;;;;;;5089030;28;20433;-74
2023/09/26 01:18:23;;;;;;;1999.90;999.90;;;10.10;99.90;;;;;;5087942;28;20432;-73
2023/09/26 01:20:50;;;;;;;1999.90;999.90;;;10.20;99.90;;;;;;5088883;28;20827;-73
2023/09/26 01:23:22;;;;;;;1999.90;999.90;;;10.30;99.90;;;;;;5087802;28;20421;-73
2023/09/26 01:25:50;;;;;;;1999.90;999.90;;;10.30;99.90;;;;;;5085072;28;20946;-73
2023/09/26 01:28:18;;;;;;;1999.90;999.90;;;10.30;99.90;;;;;;5089386;28;20461;-73
2023/09/26 01:30:46;;;;;;;1999.90;999.90;;;10.00;99.90;;;;;;5088934;28;20785;-74
2023/09/26 01:33:16;;;;;;;1999.90;999.90;;;10.20;99.90;;;;;;5088286;28;20433;-73
2023/09/26 01:35:43;;;;;;;1999.90;999.90;;;10.20;99.90;;;;;;5088140;28;20525;-73
2023/09/26 01:38:10;;;;;;;1999.90;999.90;;;10.30;99.90;;;;;;5089147;28;20911;-72
2023/09/26 01:40:37;;;;;;;1999.90;999.90;;;10.40;99.90;;;;;;5084633;28;20438;-74
2023/09/26 01:43:05;;;;;;;1999.90;999.90;;;10.60;99.90;;;;;;5083804;28;20421;-73
2023/09/26 01:45:32;;;;;;;1999.90;999.90;;;10.40;99.90;;;;;;5089603;28;20437;-73
2023/09/26 01:48:00;;;;;;;1999.90;999.90;;;10.20;99.90;;;;;;5088708;28;20425;-73
2023/09/26 01:50:27;;;;;;;1999.90;999.90;;;10.00;99.90;;;;;;5086071;28;20429;-74
2023/09/26 01:52:54;;;;;;;1999.90;999.90;;;10.10;99.90;;;;;;5087317;28;20915;-72
2023/09/26 01:55:22;;;;;;;1999.90;999.90;;;10.00;99.90;;;;;;5088088;28;20426;-73
2023/09/26 01:57:50;;;;;;;1999.90;999.90;;;10.10;99.90;;;;;;5089030;28;20924;-73
2023/09/26 02:00:19;;;;;;;1999.90;999.90;;;10.20;99.90;;;;;;5083281;28;20430;-73
2023/09/26 02:02:48;;;;;;;1999.90;999.90;;;10.20;99.90;;;;;;5088357;28;20484;-74
2023/09/26 02:05:16;;;;;;;1999.90;999.90;;;10.40;99.90;;;;;;5088682;28;20520;-73
2023/09/26 02:07:45;;;;;;;1999.90;999.90;;;10.30;99.90;;;;;;5083980;28;20506;-73
2023/09/26 02:10:12;;;;;;;1999.90;999.90;;;10.10;99.90;;;;;;5086548;28;20432;-73
2023/09/26 02:12:44;;;;;;;1999.90;999.90;;;10.10;99.90;;;;;;5086467;28;20448;-73
2023/09/26 02:15:12;;;;;;;1999.90;999.90;;;10.40;99.90;;;;;;5088321;28;20945;-73
2023/09/26 02:17:41;;;;;;;1999.90;999.90;;;10.10;99.90;;;;;;5088278;28;20441;-73
2023/09/26 02:20:12;;;;;;;1999.90;999.90;;;10.10;99.90;;;;;;5087899;28;20430;-73
2023/09/26 02:22:39;;;;;;;1999.90;999.90;;;10.10;99.90;;;;;;5085679;28;20512;-73
2023/09/26 02:25:07;;;;;;;1999.90;999.90;;;10.20;99.90;;;;;;5088200;28;20804;-73
2023/09/26 02:27:33;;;;;;;1999.90;999.90;;;10.20;99.90;;;;;;5088725;28;20447;-74
2023/09/26 02:30:00;;;;;;;1999.90;999.90;;;10.20;99.90;;;;;;5088594;28;20429;-73
2023/09/26 02:32:27;;;;;;;1999.90;999.90;;;10.10;99.90;;;;;;5087374;28;20426;-73
2023/09/26 02:34:55;;;;;;;1999.90;999.90;;;10.20;99.90;;;;;;5082003;28;20445;-74
2023/09/26 02:37:22;;;;;;;1999.90;999.90;;;10.20;99.90;;;;;;5088124;28;21771;-73
2023/09/26 02:39:49;;;;;;;1999.90;999.90;;;10.00;99.90;;;;;;5088778;28;20425;-74
2023/09/26 02:42:16;;;;;;;1999.90;999.90;;;10.30;99.90;;;;;;5079386;28;20430;-72
2023/09/26 02:44:43;;;;;;;1999.90;999.90;;;9.80;99.90;;;;;;5087982;28;20434;-74
2023/09/26 02:47:09;;;;;;;1999.90;999.90;;;9.60;99.90;;;;;;5088304;28;20421;-72
2023/09/26 02:49:36;;;;;;;1999.90;999.90;;;9.60;99.90;;;;;;5086888;28;21024;-74
2023/09/26 02:52:05;;;;;;;1999.90;999.90;;;10.00;99.90;;;;;;5087846;28;20422;-74
2023/09/26 02:54:31;;;;;;;1999.90;999.90;;;9.80;99.90;;;;;;5088074;28;21494;-73
2023/09/26 02:56:58;;;;;;;1999.90;999.90;;;10.00;99.90;;;;;;5088436;28;20935;-73
2023/09/26 02:59:25;;;;;;;1999.90;999.90;;;10.00;99.90;;;;;;5087895;28;21157;-73
2023/09/26 03:01:52;;;;;;;1999.90;999.90;;;10.10;99.90;;;;;;5082337;28;20799;-73
2023/09/26 03:04:19;;;;;;;1999.90;999.90;;;10.20;99.90;;;;;;5080394;28;20477;-74
2023/09/26 03:06:46;;;;;;;1999.90;999.90;;;10.10;99.90;;;;;;5088417;28;20434;-74
2023/09/26 03:09:15;;;;;;;1999.90;999.90;;;10.30;99.90;;;;;;5085848;28;21642;-73
2023/09/26 03:11:43;;;;;;;1999.90;999.90;;;10.00;99.90;;;;;;5085625;28;20514;-73
2023/09/26 03:14:10;;;;;;;1999.90;999.90;;;9.90;99.90;;;;;;5084302;28;20433;-73
2023/09/26 03:16:36;;;;;;;1999.90;999.90;;;9.80;99.90;;;;;;5088149;28;20438;-73
2023/09/26 03:19:03;;;;;;;1999.90;999.90;;;9.90;99.90;;;;;;5088192;28;20441;-72
2023/09/26 03:21:30;;;;;;;1999.90;999.90;;;9.90;99.90;;;;;;5088123;28;20429;-73
2023/09/26 03:23:57;;;;;;;1999.90;999.90;;;10.20;99.90;;;;;;5083005;28;20427;-73
2023/09/26 03:26:25;;;;;;;1999.90;999.90;;;9.80;99.90;;;;;;5087881;28;20430;-73
2023/09/26 03:28:52;;;;;;;1999.90;999.90;;;10.00;99.90;;;;;;5088287;28;20426;-73
2023/09/26 03:31:18;;;;;;;1999.90;999.90;;;10.00;99.90;;;;;;5088018;28;20429;-73
2023/09/26 03:33:45;;;;;;;1999.90;999.90;;;9.90;99.90;;;;;;5087835;28;20421;-73
2023/09/26 03:36:12;;;;;;;1999.90;999.90;;;9.80;99.90;;;;;;5079065;28;20428;-72
2023/09/26 03:38:39;;;;;;;1999.90;999.90;;;9.70;99.90;;;;;;5081277;28;20429;-73
2023/09/26 03:41:06;;;;;;;1999.90;999.90;;;9.70;99.90;;;;;;5087657;28;20435;-73
2023/09/26 03:43:34;;;;;;;1999.90;999.90;;;10.10;99.90;;;;;;5087183;28;20432;-73
2023/09/26 03:46:03;;;;;;;1999.90;999.90;;;9.50;99.90;;;;;;5087358;28;20431;-73
2023/09/26 03:48:29;;;;;;;1999.90;999.90;;;9.50;99.90;;;;;;5077143;28;20451;-74
2023/09/26 03:50:56;;;;;;;1999.90;999.90;;;9.40;99.90;;;;;;5083580;28;20426;-73
2023/09/26 03:53:23;;;;;;;1999.90;999.90;;;9.50;99.90;;;;;;5088504;28;20509;-73
2023/09/26 03:55:54;;;;;;;1999.90;999.90;;;10.00;99.90;;;;;;5090876;28;20938;-73
2023/09/26 03:58:21;;;;;;;1999.90;999.90;;;9.60;99.90;;;;;;5084502;28;20431;-73
2023/09/26 04:00:49;;;;;;;1999.90;999.90;;;9.60;99.90;;;;;;5085250;28;20431;-74
2023/09/26 04:03:16;;;;;;;1999.90;999.90;;;9.60;99.90;;;;;;5089506;28;20422;-73
2023/09/26 04:05:46;;;;;;;1999.90;999.90;;;10.00;99.90;;;;;;5090903;28;20807;-73
2023/09/26 04:08:13;;;;;;;1999.90;999.90;;;9.70;99.90;;;;;;5084045;28;20678;-74
2023/09/26 04:10:40;;;;;;;1999.90;999.90;;;9.70;99.90;;;;;;5075103;28;20940;-74
2023/09/26 04:13:07;;;;;;;1999.90;999.90;;;9.70;99.90;;;;;;5087066;28;20421;-73
2023/09/26 04:15:37;;;;;;;1999.90;999.90;;;9.80;99.90;;;;;;5081964;28;20422;-73
2023/09/26 04:18:05;;;;;;;1999.90;999.90;;;9.70;99.90;;;;;;5087562;28;20480;-72
2023/09/26 04:20:35;;;;;;;1999.90;999.90;;;9.70;99.90;;;;;;5091346;28;20461;-73
2023/09/26 04:23:02;;;;;;;1999.90;999.90;;;9.90;99.90;;;;;;5076594;28;20435;-73
2023/09/26 04:25:30;;;;;;;1999.90;999.90;;;9.60;99.90;;;;;;5083761;28;20426;-73
2023/09/26 04:27:56;;;;;;;1999.90;999.90;;;9.60;99.90;;;;;;5091164;28;20455;-74
2023/09/26 04:30:24;;;;;;;1999.90;999.90;;;9.50;99.90;;;;;;5090784;28;20815;-73
2023/09/26 04:32:51;;;;;;;1999.90;999.90;;;9.50;99.90;;;;;;5086714;28;20479;-73
2023/09/26 04:35:19;;;;;;;1999.90;999.90;;;9.40;99.90;;;;;;5089866;28;20430;-74
2023/09/26 04:37:45;;;;;;;1999.90;999.90;;;9.50;99.90;;;;;;5074287;28;20432;-73
2023/09/26 04:40:14;;;;;;;1999.90;999.90;;;9.50;99.90;;;;;;5088235;28;20444;-74
2023/09/26 04:42:43;;;;;;;1999.90;999.90;;;9.50;99.90;;;;;;5089071;28;20436;-72
2023/09/26 04:45:10;;;;;;;1999.90;999.90;;;9.60;99.90;;;;;;5090689;28;20426;-73
2023/09/26 04:47:37;;;;;;;1999.90;999.90;;;9.70;99.90;;;;;;5090705;28;20442;-73
2023/09/26 04:50:05;;;;;;;1999.90;999.90;;;9.60;99.90;;;;;;5078885;28;20435;-74
2023/09/26 04:52:33;;;;;;;1999.90;999.90;;;9.60;99.90;;;;;;5076267;28;20418;-73
2023/09/26 04:55:00;;;;;;;1999.90;999.90;;;9.50;99.90;;;;;;5090057;28;20421;-73
2023/09/26 04:57:27;;;;;;;1999.90;999.90;;;10.00;99.90;;;;;;5084910;28;20433;-73
2023/09/26 04:59:54;;;;;;;1999.90;999.90;;;9.70;99.90;;;;;;5088621;28;20945;-73
2023/09/26 05:02:21;;;;;;;1999.90;999.90;;;9.70;99.90;;;;;;5084977;28;20441;-73
2023/09/26 05:04:48;;;;;;;1999.90;999.90;;;9.70;99.90;;;;;;5073154;28;20423;-73
2023/09/26 05:07:16;;;;;;;1999.90;999.90;;;9.60;99.90;;;;;;5087659;28;20496;-73
2023/09/26 05:09:44;;;;;;;1999.90;999.90;;;9.50;99.90;;;;;;5087190;28;20475;-72
2023/09/26 05:12:10;;;;;;;1999.90;999.90;;;9.70;99.90;;;;;;5086400;28;20547;-73
2023/09/26 05:14:37;;;;;;;1999.90;999.90;;;9.60;99.90;;;;;;5086926;28;20950;-73
2023/09/26 05:17:04;;;;;;;1999.90;999.90;;;9.60;99.90;;;;;;5073931;28;20447;-73
2023/09/26 05:19:31;;;;;;;1999.90;999.90;;;9.70;99.90;;;;;;5077589;28;20491;-73
2023/09/26 05:21:58;;;;;;;1999.90;999.90;;;9.70;99.90;;;;;;5089913;28;20780;-73
2023/09/26 05:24:25;;;;;;;1999.90;999.90;;;9.90;99.90;;;;;;5088653;28;20432;-73
2023/09/26 05:26:53;;;;;;;1999.90;999.90;;;9.80;99.90;;;;;;5089430;28;20426;-73
2023/09/26 05:29:19;;;;;;;1999.90;999.90;;;9.90;99.90;;;;;;5089478;28;20930;-73
2023/09/26 05:31:46;;;;;;;1999.90;999.90;;;9.80;99.90;;;;;;5074653;28;20442;-73
2023/09/26 05:34:13;;;;;;;1999.90;999.90;;;9.80;99.90;;;;;;5081897;28;20426;-73
2023/09/26 05:36:40;;;;;;;1999.90;999.90;;;10.00;99.90;;;;;;5088717;28;20449;-73
2023/09/26 05:39:07;;;;;;;1999.90;999.90;;;10.00;99.90;;;;;;5086632;28;20465;-74
2023/09/26 05:41:34;;;;;;;1999.90;999.90;;;9.90;99.90;;;;;;5085830;28;20441;-73
2023/09/26 05:44:02;;;;;;;1999.90;999.90;;;10.00;99.90;;;;;;5085475;28;20432;-73
2023/09/26 05:46:29;;;;;;;1999.90;999.90;;;10.00;99.90;;;;;;5082081;28;20433;-73
2023/09/26 05:48:55;;;;;;;1999.90;999.90;;;10.10;99.90;;;;;;5082073;28;20429;-73
2023/09/26 05:51:22;;;;;;;1999.90;999.90;;;10.20;99.90;;;;;;5082051;28;20451;-73
2023/09/26 05:53:49;;;;;;;1999.90;999.90;;;10.30;99.90;;;;;;5083929;28;20437;-73
2023/09/26 05:56:15;;;;;;;1999.90;999.90;;;10.30;99.90;;;;;;5089187;28;20405;-73
2023/09/26 05:58:42;;;;;;;1999.90;999.90;;;10.40;99.90;;;;;;5084596;28;20754;-73
2023/09/26 06:01:11;;;;;;;1999.90;999.90;;;10.90;99.90;;;;;;5090189;28;20414;-73
2023/09/26 06:03:38;;;;;;;1999.90;999.90;;;10.40;99.90;;;;;;5090267;28;20761;-73
2023/09/26 06:06:05;;;;;;;1999.90;999.90;;;10.50;99.90;;;;;;5087091;28;20469;-72
2023/09/26 06:08:33;;;;;;;1999.90;999.90;;;10.60;99.90;;;;;;5090755;28;20468;-73
2023/09/26 06:11:00;;;;;;;1999.90;999.90;;;10.70;99.90;;;;;;5090678;28;20485;-73
2023/09/26 06:13:27;;;;;;;1999.90;999.90;;;10.80;99.90;;;;;;5089596;28;20420;-72
2023/09/26 06:15:54;;;;;;;1999.90;999.90;;;10.90;99.90;;;;;;5087196;28;20407;-73
2023/09/26 06:18:22;;;;;;;1999.90;999.90;;;11.00;99.90;;;;;;5084705;28;20520;-74
2023/09/26 06:20:49;;;;;;;1999.90;999.90;;;11.10;99.90;;;;;;5082414;28;20490;-72
2023/09/26 06:23:16;;;;;;;1999.90;999.90;;;11.20;99.90;;;;;;5079020;28;20428;-72
2023/09/26 06:25:42;;;;;;;1999.90;999.90;;;11.30;99.90;;;;;;5081348;28;22212;-74
2023/09/26 06:28:09;;;;;;;1999.90;999.90;;;11.40;99.90;;;;;;5087365;28;20430;-73
2023/09/26 06:30:36;;;;;;;1999.90;999.90;;;11.50;99.90;;;;;;5085152;28;20430;-73
2023/09/26 06:33:02;;;;;;;1999.90;999.90;;;11.80;99.90;;;;;;5082703;28;20431;-73
2023/09/26 06:35:33;;;;;;;1999.90;999.90;;;12.10;99.90;;;;;;5087252;28;20446;-74
2023/09/26 06:38:00;;;;;;;1999.90;999.90;;;12.50;99.90;;;;;;5087082;28;20409;-73
2023/09/26 06:40:27;;;;;;;1999.90;999.90;;;12.70;99.90;;;;;;5088387;28;20457;-73
2023/09/26 06:42:55;;;;;;;1999.90;999.90;;;13.00;99.90;;;;;;5085936;28;21009;-72
2023/09/26 06:45:21;;;;;;;1999.90;999.90;;;13.10;99.90;;;;;;5084231;28;20433;-73
2023/09/26 06:47:48;;;;;;;1999.90;999.90;;;13.40;99.90;;;;;;5079381;28;20433;-72
2023/09/26 06:50:15;;;;;;;1999.90;999.90;;;13.60;99.90;;;;;;5083584;28;20499;-72
2023/09/26 06:52:43;;;;;;;1999.90;999.90;;;13.80;99.90;;;;;;5079719;28;20914;-73
2023/09/26 06:55:11;;;;;;;1999.90;999.90;;;14.00;99.90;;;;;;5084704;28;20441;-73
2023/09/26 06:57:38;;;;;;;1999.90;999.90;;;14.20;99.90;;;;;;5084360;28;20433;-72
2023/09/26 07:00:12;;;;;;;1999.90;999.90;;;14.40;99.90;;;;;;5084886;28;20433;-73
2023/09/26 07:02:39;;;;;;;1999.90;999.90;;;14.70;99.90;;;;;;5085137;28;20796;-73
2023/09/26 07:05:07;;;;;;;1999.90;999.90;;;15.20;99.90;;;;;;5085446;28;20522;-72
2023/09/26 07:07:34;;;;;;;1999.90;999.90;;;15.30;99.90;;;;;;5088024;28;20842;-73
2023/09/26 07:10:03;;;;;;;1999.90;999.90;;;15.40;99.90;;;;;;5081327;28;20936;-73
2023/09/26 07:12:30;;;;;;;1999.90;999.90;;;15.50;99.90;;;;;;5087990;28;20441;-72
2023/09/26 07:14:57;;;;;;;1999.90;999.90;;;16.10;99.90;;;;;;5083278;28;20483;-73
2023/09/26 07:17:24;;;;;;;1999.90;999.90;;;16.40;99.90;;;;;;5087158;28;20425;-72
2023/09/26 07:19:51;;;;;;;1999.90;999.90;;;16.50;99.90;;;;;;5085894;28;20432;-73
2023/09/26 07:22:18;;;;;;;1999.90;999.90;;;16.90;99.90;;;;;;5081061;28;20430;-73
2023/09/26 07:24:48;;;;;;;1999.90;999.90;;;17.10;99.90;;;;;;5082296;28;20426;-73
2023/09/26 07:27:17;;;;;;;1999.90;999.90;;;17.40;99.90;;;;;;5084419;28;20491;-73
2023/09/26 07:29:45;;;;;;;1999.90;999.90;;;17.50;99.90;;;;;;5090249;28;20909;-72
2023/09/26 07:32:12;;;;;;;1999.90;999.90;;;17.40;99.90;;;;;;5089062;28;20442;-72
2023/09/26 07:34:41;;;;;;;1999.90;999.90;;;17.40;99.90;;;;;;5089849;28;20426;-73
2023/09/26 07:37:07;;;;;;;1999.90;999.90;;;17.40;99.90;;;;;;5088251;28;20434;-73
2023/09/26 07:39:34;;;;;;;1999.90;999.90;;;17.70;99.90;;;;;;5086714;28;20437;-74
2023/09/26 07:42:01;;;;;;;1999.90;999.90;;;17.70;99.90;;;;;;5088315;28;20426;-73
2023/09/26 07:44:29;;;;;;;1999.90;999.90;;;18.00;99.90;;;;;;5091080;28;20433;-73
2023/09/26 07:46:56;;;;;;;1999.90;999.90;;;18.10;99.90;;;;;;5088977;28;20451;-73
2023/09/26 07:49:23;;;;;;;1999.90;999.90;;;18.20;99.90;;;;;;5088093;28;20430;-72
2023/09/26 07:51:49;;;;;;;1999.90;999.90;;;18.20;99.90;;;;;;5085758;28;20424;-73
2023/09/26 07:54:16;;;;;;;1999.90;999.90;;;18.30;99.90;;;;;;5091411;28;20429;-72
2023/09/26 07:56:43;;;;;;;1999.90;999.90;;;18.50;99.90;;;;;;5084416;28;20433;-73
2023/09/26 07:59:10;;;;;;;1999.90;999.90;;;18.70;99.90;;;;;;5091792;28;20795;-72
2023/09/26 08:01:38;;;;;;;1999.90;999.90;;;18.80;99.90;;;;;;5090119;28;20433;-73
2023/09/26 08:04:07;;;;;;;1999.90;999.90;;;19.10;99.90;;;;;;5084058;28;20824;-73
2023/09/26 08:06:33;;;;;;;1999.90;999.90;;;19.20;99.90;;;;;;5087527;28;20437;-73
2023/09/26 08:09:00;;;;;;;1999.90;999.90;;;19.40;99.90;;;;;;5091484;28;20796;-73
2023/09/26 08:11:28;;;;;;;1999.90;999.90;;;19.40;99.90;;;;;;5091513;28;20434;-73
2023/09/26 08:13:56;;;;;;;1999.90;999.90;;;19.80;99.90;;;;;;5088612;28;20427;-73
2023/09/26 08:16:23;;;;;;;1999.90;999.90;;;19.70;99.90;;;;;;5087075;28;20907;-73
2023/09/26 08:18:51;;;;;;;1999.90;999.90;;;19.80;99.90;;;;;;5087987;28;20521;-74
2023/09/26 08:21:18;;;;;;;1999.90;999.90;;;20.00;99.90;;;;;;5087642;28;20427;-73
2023/09/26 08:23:45;;;;;;;1999.90;999.90;;;20.10;99.90;;;;;;5086924;28;20430;-73
2023/09/26 08:26:12;;;;;;;1999.90;999.90;;;20.60;99.90;;;;;;5088825;28;20911;-73
2023/09/26 08:28:39;;;;;;;1999.90;999.90;;;20.40;99.90;;;;;;5090055;28;20429;-72
2023/09/26 08:31:07;;;;;;;1999.90;999.90;;;20.50;99.90;;;;;;5081744;28;20454;-73
2023/09/26 08:33:35;;;;;;;1999.90;999.90;;;20.50;99.90;;;;;;5087268;28;20512;-73
2023/09/26 08:36:05;;;;;;;1999.90;999.90;;;20.50;99.90;;;;;;5091231;28;20422;-73
2023/09/26 08:38:32;;;;;;;1999.90;999.90;;;20.60;99.90;;;;;;5087909;28;20504;-74
2023/09/26 08:40:59;;;;;;;1999.90;999.90;;;20.60;99.90;;;;;;5088887;28;20437;-73
2023/09/26 08:43:27;;;;;;;1999.90;999.90;;;20.70;99.90;;;;;;5083163;28;20431;-73
2023/09/26 08:45:54;;;;;;;1999.90;999.90;;;20.90;99.90;;;;;;5087840;28;21014;-73
2023/09/26 08:48:21;;;;;;;1999.90;999.90;;;21.00;99.90;;;;;;5090121;28;20425;-73
2023/09/26 08:50:48;;;;;;;1999.90;999.90;;;21.20;99.90;;;;;;5083602;28;20428;-72
2023/09/26 08:53:16;;;;;;;1999.90;999.90;;;21.70;99.90;;;;;;5090215;28;20438;-73
2023/09/26 08:55:45;;;;;;;1999.90;999.90;;;21.70;99.90;;;;;;5088014;28;20453;-73
2023/09/26 08:58:13;;;;;;;1999.90;999.90;;;21.60;99.90;;;;;;5089067;28;20456;-71
2023/09/26 09:00:39;;;;;;;1999.90;999.90;;;21.70;99.90;;;;;;5087150;28;20807;-73
2023/09/26 09:03:06;;;;;;;1999.90;999.90;;;21.90;99.90;;;;;;5090227;28;20916;-72
2023/09/26 09:05:33;;;;;;;1999.90;999.90;;;22.10;99.90;;;;;;5087981;28;20426;-73
2023/09/26 09:08:00;;;;;;;1999.90;999.90;;;22.10;99.90;;;;;;5084269;28;20434;-73
2023/09/26 09:10:28;;;;;;;1999.90;999.90;;;22.10;99.90;;;;;;5084482;28;20923;-73
2023/09/26 09:13:01;;;;;;;1999.90;999.90;;;22.40;99.90;;;;;;5090049;28;20532;-72
2023/09/26 09:15:29;;;;;;;1999.90;999.90;;;22.60;99.90;;;;;;5088476;28;20799;-73
2023/09/26 09:17:57;;;;;;;1999.90;999.90;;;22.60;99.90;;;;;;5089129;28;20457;-73
2023/09/26 09:20:32;;;;;;;1999.90;999.90;;;22.90;99.90;;;;;;5085000;28;20429;-73
2023/09/26 09:23:00;;;;;;;1999.90;999.90;;;22.60;99.90;;;;;;5085675;28;20512;-73
2023/09/26 09:25:32;;;;;;;1999.90;999.90;;;22.60;99.90;;;;;;5089614;28;20418;-73
2023/09/26 09:28:04;;;;;;;1999.90;999.90;;;23.00;99.90;;;;;;5090197;28;20437;-73
2023/09/26 09:30:37;;;;;;;1999.90;999.90;;;22.60;99.90;;;;;;5089849;28;20436;-72
2023/09/26 09:33:06;;;;;;;1999.90;999.90;;;22.70;99.90;;;;;;5087544;28;20440;-73
2023/09/26 09:35:34;;;;;;;1999.90;999.90;;;22.90;99.90;;;;;;5083094;28;20433;-74
2023/09/26 09:38:00;;;;;;;1999.90;999.90;;;23.10;99.90;;;;;;5087606;28;20432;-72
2023/09/26 09:40:27;;;;;;;1999.90;999.90;;;23.30;99.90;;;;;;5088973;28;20426;-72
2023/09/26 09:42:56;;;;;;;1999.90;999.90;;;23.30;99.90;;;;;;5083772;28;20525;-72
2023/09/26 09:45:23;;;;;;;1999.90;999.90;;;23.10;99.90;;;;;;5089194;28;20551;-73
2023/09/26 09:47:51;;;;;;;1999.90;999.90;;;23.20;99.90;;;;;;5087775;28;20520;-72
2023/09/26 09:50:18;;;;;;;1999.90;999.90;;;23.40;99.90;;;;;;5086826;28;20456;-72
2023/09/26 09:52:48;;;;;;;1999.90;999.90;;;23.20;99.90;;;;;;5088271;28;20426;-72
2023/09/26 09:55:21;;;;;;;1999.90;999.90;;;23.10;99.90;;;;;;5087296;28;20462;-72
2023/09/26 09:57:50;;;;;;;1999.90;999.90;;;23.10;99.90;;;;;;5088587;28;20422;-73
2023/09/26 10:00:24;;;;;;;1999.90;999.90;;;23.20;99.90;;;;;;5091233;28;20422;-73
2023/09/26 10:02:51;;;;;;;1999.90;999.90;;;23.00;99.90;;;;;;5091064;28;20463;-73
2023/09/26 10:05:19;;;;;;;1999.90;999.90;;;23.10;99.90;;;;;;5090721;28;20417;-71
2023/09/26 10:07:49;;;;;;;1999.90;999.90;;;23.40;99.90;;;;;;5090836;28;20413;-72
2023/09/26 10:10:17;;;;;;;1999.90;999.90;;;23.50;99.90;;;;;;5091044;28;20487;-73
2023/09/26 10:12:47;;;;;;;1999.90;999.90;;;23.50;99.90;;;;;;5091079;28;20425;-73
2023/09/26 10:15:16;;;;;;;1999.90;999.90;;;23.40;99.90;;;;;;5090541;28;20483;-70
2023/09/26 10:17:48;;;;;;;1999.90;999.90;;;23.40;99.90;;;;;;5091026;28;20488;-71
2023/09/26 10:20:16;;;;;;;1999.90;999.90;;;23.40;99.90;;;;;;5090642;28;20435;-72
2023/09/26 10:22:44;;;;;;;1999.90;999.90;;;23.80;99.90;;;;;;5090972;28;20409;-72
2023/09/26 10:25:16;;;;;;;1999.90;999.90;;;23.60;99.90;;;;;;5090554;28;20803;-72
2023/09/26 10:27:45;;;;;;;1999.90;999.90;;;23.60;99.90;;;;;;5090937;28;20410;-73
2023/09/26 10:30:14;;;;;;;1999.90;999.90;;;23.70;99.90;;;;;;5090629;28;20510;-73
2023/09/26 10:32:44;;;;;;;1999.90;999.90;;;24.00;99.90;;;;;;5080890;28;20441;-72
2023/09/26 10:35:28;;;;;;;1999.90;999.90;;;23.90;99.90;;;;;;5088441;28;20436;-72
2023/09/26 10:38:01;;;;;;;1999.90;999.90;;;23.80;99.90;;;;;;5087141;28;20437;-72
2023/09/26 10:40:29;;;;;;;1999.90;999.90;;;24.00;99.90;;;;;;5083603;28;20430;-72
2023/09/26 10:42:55;;;;;;;1999.90;999.90;;;24.20;99.90;;;;;;5083097;28;20429;-72
2023/09/26 10:45:22;;;;;;;1999.90;999.90;;;24.20;99.50;;;;;;5084588;28;20806;-72
2023/09/26 10:47:51;;;;;;;1999.90;999.90;;;24.10;99.90;;;;;;5084387;28;20434;-74
2023/09/26 10:50:18;;;;;;;1999.90;999.90;;;24.20;99.50;;;;;;5083530;28;20429;-72
2023/09/26 10:52:47;;;;;;;1999.90;999.90;;;24.30;99.80;;;;;;5082128;28;20451;-72
2023/09/26 10:55:16;;;;;;;1999.90;999.90;;;24.40;99.60;;;;;;5083603;28;20473;-72
2023/09/26 10:57:44;;;;;;;1999.90;999.90;;;24.60;98.60;;;;;;5085888;28;20434;-72
2023/09/26 11:00:13;;;;;;;1999.90;999.90;;;24.70;98.30;;;;;;5087283;28;20973;-72
2023/09/26 11:02:43;;;;;;;1999.90;999.90;;;24.70;98.70;;;;;;5083149;28;20429;-72
2023/09/26 11:05:12;;;;;;;1999.90;999.90;;;24.80;98.10;;;;;;5082215;28;20437;-72
2023/09/26 11:07:39;;;;;;;1999.90;999.90;;;24.70;98.20;;;;;;5081901;28;20437;-72
2023/09/26 11:10:11;;;;;;;1999.90;999.90;;;24.60;98.00;;;;;;5083521;28;20432;-73
2023/09/26 11:12:38;;;;;;;1999.90;999.90;;;24.70;98.50;;;;;;5083381;28;20429;-73
2023/09/26 11:15:07;;;;;;;1999.90;999.90;;;24.80;98.10;;;;;;5087419;28;20426;-73
2023/09/26 11:17:34;;;;;;;1999.90;999.90;;;24.90;98.10;;;;;;5081711;28;20436;-73
2023/09/26 11:20:01;;;;;;;1999.90;999.90;;;25.10;97.90;;;;;;5085012;28;20449;-72
2023/09/26 11:22:29;;;;;;;1999.90;999.90;;;24.80;97.60;;;;;;5086922;28;20946;-71
2023/09/26 11:25:06;;;;;;;1999.90;999.90;;;24.80;98.00;;;;;;5087070;28;20441;-71
2023/09/26 11:27:37;;;;;;;1999.90;999.90;;;24.70;98.00;;;;;;5081866;28;20554;-72
2023/09/26 11:30:04;;;;;;;1999.90;999.90;;;24.60;97.80;;;;;;5087306;28;20430;-72
2023/09/26 11:32:31;;;;;;;1999.90;999.90;;;24.80;97.90;;;;;;5085897;28;20430;-74
2023/09/26 11:34:58;;;;;;;1999.90;999.90;;;25.50;97.90;;;;;;5086682;28;20425;-72
2023/09/26 11:37:25;;;;;;;1999.90;999.90;;;25.10;97.90;;;;;;5088329;28;20453;-72
2023/09/26 11:39:54;;;;;;;1999.90;999.90;;;25.20;97.90;;;;;;5087169;28;20433;-74
2023/09/26 11:42:21;;;;;;;1999.90;999.90;;;25.10;97.60;;;;;;5084137;28;20518;-73
2023/09/26 11:44:55;;;;;;;1999.90;999.90;;;25.10;97.60;;;;;;5082839;28;20886;-74
2023/09/26 11:47:23;;;;;;;1999.90;999.90;;;25.10;97.40;;;;;;5086753;28;20495;-73
2023/09/26 11:49:50;;;;;;;1999.90;999.90;;;25.70;97.70;;;;;;5086828;28;20437;-74
2023/09/26 11:52:17;;;;;;;1999.90;999.90;;;25.40;97.30;;;;;;5086610;28;21012;-74
2023/09/26 11:54:44;;;;;;;1999.90;999.90;;;25.60;97.40;;;;;;5086408;28;20430;-71
2023/09/26 11:57:13;;;;;;;1999.90;999.90;;;25.60;96.20;;;;;;5086321;28;20796;-71
2023/09/26 11:59:40;;;;;;;1999.90;999.90;;;25.60;96.80;;;;;;5086775;28;20433;-73
2023/09/26 12:02:08;;;;;;;1999.90;999.90;;;25.50;96.00;;;;;;5081306;28;20425;-71
2023/09/26 12:04:35;;;;;;;1999.90;999.90;;;25.40;96.40;;;;;;5085004;28;20426;-73